createdAt,value
2022-11-12T00:00:03.036Z,1023.24
2022-11-12T00:01:03.553Z,1023.24
2022-11-12T00:02:02.306Z,1023.26
2022-11-12T00:03:02.800Z,1023.25
2022-11-12T00:04:02.720Z,1023.26
2022-11-12T00:05:02.573Z,1023.27
2022-11-12T00:06:02.450Z,1023.31
2022-11-12T00:07:02.818Z,1023.30
2022-11-12T00:08:02.841Z,1023.29
2022-11-12T00:09:02.572Z,1023.28
2022-11-12T00:10:02.889Z,1023.25
2022-11-12T00:11:02.275Z,1023.28
2022-11-12T00:12:01.800Z,1023.28
2022-11-12T00:13:01.959Z,1023.31
2022-11-12T00:14:02.055Z,1023.31
2022-11-12T00:15:02.378Z,1023.29
2022-11-12T00:16:02.166Z,1023.31
2022-11-12T00:17:01.905Z,1023.34
2022-11-12T00:18:02.389Z,1023.31
2022-11-12T00:19:02.111Z,1023.33
2022-11-12T00:20:02.454Z,1023.36
2022-11-12T00:21:02.066Z,1023.32
2022-11-12T00:22:03.148Z,1023.33
2022-11-12T00:23:02.811Z,1023.34
2022-11-12T00:24:02.549Z,1023.31
2022-11-12T00:25:02.933Z,1023.34
2022-11-12T00:26:03.079Z,1023.32
2022-11-12T00:27:02.000Z,1023.29
2022-11-12T00:28:02.233Z,1023.30
2022-11-12T00:29:01.989Z,1023.32
2022-11-12T00:30:02.492Z,1023.33
2022-11-12T00:31:02.093Z,1023.34
2022-11-12T00:32:02.432Z,1023.33
2022-11-12T00:33:02.222Z,1023.32
2022-11-12T00:34:02.656Z,1023.30
2022-11-12T00:35:02.907Z,1023.33
2022-11-12T00:36:02.516Z,1023.34
2022-11-12T00:37:02.229Z,1023.37
2022-11-12T00:38:02.243Z,1023.35
2022-11-12T00:39:02.552Z,1023.37
2022-11-12T00:40:02.650Z,1023.41
2022-11-12T00:41:02.422Z,1023.42
2022-11-12T00:42:02.393Z,1023.46
2022-11-12T00:43:02.128Z,1023.45
2022-11-12T00:44:02.031Z,1023.50
2022-11-12T00:45:02.096Z,1023.49
2022-11-12T00:46:02.010Z,1023.49
2022-11-12T00:47:02.838Z,1023.50
2022-11-12T00:48:02.845Z,1023.52
2022-11-12T00:49:02.419Z,1023.51
2022-11-12T00:50:02.396Z,1023.52
2022-11-12T00:51:02.596Z,1023.53
2022-11-12T00:52:02.610Z,1023.51
2022-11-12T00:53:01.933Z,1023.45
2022-11-12T00:54:02.484Z,1023.46
2022-11-12T00:55:02.323Z,1023.46
2022-11-12T00:56:02.358Z,1023.44
2022-11-12T00:57:02.203Z,1023.45
2022-11-12T00:58:02.259Z,1023.44
2022-11-12T00:59:02.556Z,1023.41
2022-11-12T01:00:02.182Z,1023.45
2022-11-12T01:01:02.338Z,1023.43
2022-11-12T01:02:02.173Z,1023.33
2022-11-12T01:03:02.304Z,1023.32
2022-11-12T01:04:02.218Z,1023.32
2022-11-12T01:05:02.593Z,1023.35
2022-11-12T01:06:02.544Z,1023.39
2022-11-12T01:07:02.361Z,1023.36
2022-11-12T01:08:02.734Z,1023.41
2022-11-12T01:09:02.485Z,1023.41
2022-11-12T01:10:02.273Z,1023.46
2022-11-12T01:11:02.551Z,1023.48
2022-11-12T01:12:02.538Z,1023.49
2022-11-12T01:13:02.597Z,1023.51
2022-11-12T01:14:02.403Z,1023.53
2022-11-12T01:15:02.530Z,1023.55
2022-11-12T01:16:02.566Z,1023.53
2022-11-12T01:17:03.481Z,1023.54
2022-11-12T01:18:03.150Z,1023.53
2022-11-12T01:19:03.305Z,1023.56
2022-11-12T01:20:03.233Z,1023.58
2022-11-12T01:21:02.941Z,1023.56
2022-11-12T01:22:02.472Z,1023.58
2022-11-12T01:23:02.922Z,1023.55
2022-11-12T01:24:02.458Z,1023.57
2022-11-12T01:25:02.281Z,1023.56
2022-11-12T01:26:02.828Z,1023.53
2022-11-12T01:27:03.007Z,1023.52
2022-11-12T01:28:03.401Z,1023.55
2022-11-12T01:29:02.863Z,1023.53
2022-11-12T01:30:03.380Z,1023.53
2022-11-12T01:31:03.192Z,1023.52
2022-11-12T01:32:02.849Z,1023.55
2022-11-12T01:33:02.696Z,1023.53
2022-11-12T01:34:02.857Z,1023.50
2022-11-12T01:35:02.526Z,1023.54
2022-11-12T01:36:02.783Z,1023.53
2022-11-12T01:37:02.288Z,1023.55
2022-11-12T01:38:02.178Z,1023.54
2022-11-12T01:39:02.411Z,1023.54
2022-11-12T01:40:02.580Z,1023.53
2022-11-12T01:41:02.140Z,1023.56
2022-11-12T01:42:02.676Z,1023.52
2022-11-12T01:43:02.543Z,1023.46
2022-11-12T01:44:02.298Z,1023.48
2022-11-12T01:45:02.317Z,1023.49
2022-11-12T01:46:02.845Z,1023.45
2022-11-12T01:47:02.849Z,1023.46
2022-11-12T01:48:02.675Z,1023.43
2022-11-12T01:49:02.524Z,1023.44
2022-11-12T01:50:02.902Z,1023.43
2022-11-12T01:51:02.972Z,1023.45
2022-11-12T01:52:02.542Z,1023.40
2022-11-12T01:53:02.500Z,1023.43
2022-11-12T01:54:02.216Z,1023.42
2022-11-12T01:55:02.354Z,1023.42
2022-11-12T01:56:02.162Z,1023.46
2022-11-12T01:57:02.232Z,1023.43
2022-11-12T01:58:02.238Z,1023.48
2022-11-12T01:59:02.681Z,1023.47
2022-11-12T02:00:02.427Z,1023.47
2022-11-12T02:01:02.818Z,1023.46
2022-11-12T02:02:03.062Z,1023.49
2022-11-12T02:03:02.782Z,1023.49
2022-11-12T02:04:03.190Z,1023.53
2022-11-12T02:05:02.764Z,1023.56
2022-11-12T02:06:02.660Z,1023.55
2022-11-12T02:07:03.276Z,1023.50
2022-11-12T02:08:03.468Z,1023.49
2022-11-12T02:09:03.090Z,1023.47
2022-11-12T02:10:02.728Z,1023.46
2022-11-12T02:11:02.997Z,1023.46
2022-11-12T02:12:03.337Z,1023.42
2022-11-12T02:13:03.389Z,1023.42
2022-11-12T02:14:03.128Z,1023.41
2022-11-12T02:15:03.553Z,1023.41
2022-11-12T02:16:03.298Z,1023.40
2022-11-12T02:17:02.945Z,1023.38
2022-11-12T02:18:02.606Z,1023.33
2022-11-12T02:19:02.963Z,1023.32
2022-11-12T02:20:02.536Z,1023.34
2022-11-12T02:21:02.491Z,1023.35
2022-11-12T02:22:02.686Z,1023.41
2022-11-12T02:23:03.169Z,1023.37
2022-11-12T02:24:02.755Z,1023.43
2022-11-12T02:25:03.066Z,1023.39
2022-11-12T02:26:02.725Z,1023.40
2022-11-12T02:27:03.076Z,1023.42
2022-11-12T02:28:02.952Z,1023.43
2022-11-12T02:29:02.942Z,1023.44
2022-11-12T02:30:03.220Z,1023.50
2022-11-12T02:31:02.803Z,1023.45
2022-11-12T02:32:03.346Z,1023.46
2022-11-12T02:33:02.901Z,1023.48
2022-11-12T02:34:03.077Z,1023.46
2022-11-12T02:35:03.283Z,1023.50
2022-11-12T02:36:03.246Z,1023.55
2022-11-12T02:37:02.932Z,1023.53
2022-11-12T02:38:02.461Z,1023.50
2022-11-12T02:39:02.867Z,1023.54
2022-11-12T02:40:02.562Z,1023.54
2022-11-12T02:41:02.544Z,1023.54
2022-11-12T02:42:02.962Z,1023.56
2022-11-12T02:43:02.753Z,1023.51
2022-11-12T02:44:02.438Z,1023.53
2022-11-12T02:45:02.450Z,1023.49
2022-11-12T02:46:02.504Z,1023.43
2022-11-12T02:47:03.085Z,1023.46
2022-11-12T02:48:02.625Z,1023.46
2022-11-12T02:49:02.850Z,1023.43
2022-11-12T02:50:02.645Z,1023.44
2022-11-12T02:51:03.086Z,1023.42
2022-11-12T02:52:03.359Z,1023.43
2022-11-12T02:53:03.092Z,1023.39
2022-11-12T02:54:03.213Z,1023.42
2022-11-12T02:55:02.975Z,1023.42
2022-11-12T02:56:03.147Z,1023.37
2022-11-12T02:57:02.650Z,1023.40
2022-11-12T02:58:02.507Z,1023.40
2022-11-12T02:59:02.316Z,1023.42
2022-11-12T03:00:02.225Z,1023.42
2022-11-12T03:01:02.230Z,1023.40
2022-11-12T03:02:02.686Z,1023.47
2022-11-12T03:03:02.150Z,1023.45
2022-11-12T03:04:02.379Z,1023.39
2022-11-12T03:05:02.401Z,1023.41
2022-11-12T03:06:02.325Z,1023.37
2022-11-12T03:07:02.831Z,1023.37
2022-11-12T03:08:02.697Z,1023.36
2022-11-12T03:09:02.579Z,1023.38
2022-11-12T03:10:02.329Z,1023.34
2022-11-12T03:11:02.743Z,1023.35
2022-11-12T03:12:03.137Z,1023.35
2022-11-12T03:13:02.896Z,1023.34
2022-11-12T03:14:02.946Z,1023.31
2022-11-12T03:15:02.804Z,1023.31
2022-11-12T03:16:03.241Z,1023.30
2022-11-12T03:17:02.545Z,1023.31
2022-11-12T03:18:02.382Z,1023.27
2022-11-12T03:19:02.143Z,1023.30
2022-11-12T03:20:02.148Z,1023.29
2022-11-12T03:21:02.549Z,1023.32
2022-11-12T03:22:02.988Z,1023.28
2022-11-12T03:23:02.575Z,1023.29
2022-11-12T03:24:02.552Z,1023.26
2022-11-12T03:25:02.390Z,1023.26
2022-11-12T03:26:02.961Z,1023.25
2022-11-12T03:27:02.767Z,1023.26
2022-11-12T03:28:02.751Z,1023.22
2022-11-12T03:29:02.572Z,1023.26
2022-11-12T03:30:03.026Z,1023.22
2022-11-12T03:31:02.890Z,1023.22
2022-11-12T03:32:02.865Z,1023.18
2022-11-12T03:33:03.322Z,1023.21
2022-11-12T03:34:02.873Z,1023.21
2022-11-12T03:35:03.541Z,1023.20
2022-11-12T03:36:02.727Z,1023.20
2022-11-12T03:37:02.598Z,1023.21
2022-11-12T03:38:02.150Z,1023.21
2022-11-12T03:39:02.260Z,1023.17
2022-11-12T03:40:02.205Z,1023.19
2022-11-12T03:41:02.076Z,1023.15
2022-11-12T03:42:03.081Z,1023.11
2022-11-12T03:43:02.988Z,1023.10
2022-11-12T03:44:02.970Z,1023.09
2022-11-12T03:45:02.651Z,1023.08
2022-11-12T03:46:03.025Z,1023.10
2022-11-12T03:47:03.451Z,1023.09
2022-11-12T03:48:03.312Z,1023.11
2022-11-12T03:49:03.108Z,1023.12
2022-11-12T03:50:03.381Z,1023.17
2022-11-12T03:51:03.293Z,1023.11
2022-11-12T03:52:02.076Z,1023.14
2022-11-12T03:53:01.945Z,1023.11
2022-11-12T03:54:02.360Z,1023.18
2022-11-12T03:55:02.118Z,1023.12
2022-11-12T03:56:02.390Z,1023.13
2022-11-12T03:57:01.920Z,1023.13
2022-11-12T03:58:02.381Z,1023.11
2022-11-12T03:59:01.872Z,1023.10
2022-11-12T04:00:02.012Z,1023.12
2022-11-12T04:01:02.641Z,1023.12
2022-11-12T04:02:02.182Z,1023.10
2022-11-12T04:03:02.710Z,1023.06
2022-11-12T04:04:02.146Z,1023.04
2022-11-12T04:05:02.268Z,1023.05
2022-11-12T04:06:02.760Z,1023.04
2022-11-12T04:07:02.425Z,1023.04
2022-11-12T04:08:02.864Z,1023.03
2022-11-12T04:09:02.390Z,1023.02
2022-11-12T04:10:02.792Z,1023.01
2022-11-12T04:11:02.569Z,1023.01
2022-11-12T04:12:02.333Z,1023.01
2022-11-12T04:13:02.779Z,1023.01
2022-11-12T04:14:02.647Z,1023.02
2022-11-12T04:15:02.503Z,1023.02
2022-11-12T04:16:02.419Z,1022.99
2022-11-12T04:17:02.270Z,1023.00
2022-11-12T04:18:02.081Z,1022.99
2022-11-12T04:19:01.975Z,1023.03
2022-11-12T04:20:01.934Z,1023.10
2022-11-12T04:21:02.401Z,1023.07
2022-11-12T04:22:03.136Z,1023.07
2022-11-12T04:23:02.664Z,1023.04
2022-11-12T04:24:02.924Z,1023.07
2022-11-12T04:25:02.515Z,1023.01
2022-11-12T04:26:02.891Z,1023.01
2022-11-12T04:27:02.715Z,1022.96
2022-11-12T04:28:02.574Z,1022.96
2022-11-12T04:29:02.613Z,1022.96
2022-11-12T04:30:02.665Z,1022.94
2022-11-12T04:31:03.190Z,1022.95
2022-11-12T04:32:02.856Z,1022.93
2022-11-12T04:33:03.200Z,1022.92
2022-11-12T04:34:02.762Z,1022.91
2022-11-12T04:35:02.928Z,1022.90
2022-11-12T04:36:02.815Z,1022.89
2022-11-12T04:37:02.274Z,1022.89
2022-11-12T04:38:02.493Z,1022.89
2022-11-12T04:39:02.358Z,1022.90
2022-11-12T04:40:02.312Z,1022.86
2022-11-12T04:41:02.589Z,1022.89
2022-11-12T04:42:02.642Z,1022.89
2022-11-12T04:43:02.478Z,1022.86
2022-11-12T04:44:02.218Z,1022.85
2022-11-12T04:45:02.766Z,1022.87
2022-11-12T04:46:02.848Z,1022.91
2022-11-12T04:47:02.460Z,1022.88
2022-11-12T04:48:02.396Z,1022.88
2022-11-12T04:49:02.291Z,1022.84
2022-11-12T04:50:02.905Z,1022.86
2022-11-12T04:51:02.544Z,1022.86
2022-11-12T04:52:02.290Z,1022.87
2022-11-12T04:53:01.837Z,1022.83
2022-11-12T04:54:01.790Z,1022.83
2022-11-12T04:55:01.841Z,1022.78
2022-11-12T04:56:02.197Z,1022.77
2022-11-12T04:57:02.016Z,1022.77
2022-11-12T04:58:02.423Z,1022.74
2022-11-12T04:59:02.306Z,1022.73
2022-11-12T05:00:02.379Z,1022.75
2022-11-12T05:01:02.151Z,1022.75
2022-11-12T05:02:02.865Z,1022.75
2022-11-12T05:03:02.699Z,1022.75
2022-11-12T05:04:02.689Z,1022.75
2022-11-12T05:05:02.331Z,1022.71
2022-11-12T05:06:02.780Z,1022.74
2022-11-12T05:07:02.853Z,1022.74
2022-11-12T05:08:02.719Z,1022.75
2022-11-12T05:09:03.205Z,1022.75
2022-11-12T05:10:02.672Z,1022.73
2022-11-12T05:11:03.101Z,1022.76
2022-11-12T05:12:03.307Z,1022.78
2022-11-12T05:13:02.856Z,1022.75
2022-11-12T05:14:02.785Z,1022.74
2022-11-12T05:15:03.263Z,1022.72
2022-11-12T05:16:02.726Z,1022.78
2022-11-12T05:17:03.130Z,1022.77
2022-11-12T05:18:03.523Z,1022.81
2022-11-12T05:19:03.040Z,1022.75
2022-11-12T05:20:03.351Z,1022.79
2022-11-12T05:21:03.588Z,1022.76
2022-11-12T05:22:02.451Z,1022.80
2022-11-12T05:23:07.360Z,1022.81
2022-11-12T05:24:02.621Z,1022.82
2022-11-12T05:25:02.122Z,1022.81
2022-11-12T05:26:02.238Z,1022.79
2022-11-12T05:27:02.442Z,1022.75
2022-11-12T05:28:02.924Z,1022.74
2022-11-12T05:29:07.564Z,1022.71
2022-11-12T05:30:02.689Z,1022.70
2022-11-12T05:31:02.572Z,1022.68
2022-11-12T05:32:03.005Z,1022.68
2022-11-12T05:33:03.365Z,1022.65
2022-11-12T05:34:02.962Z,1022.68
2022-11-12T05:35:03.290Z,1022.63
2022-11-12T05:36:03.292Z,1022.63
2022-11-12T05:37:03.157Z,1022.60
2022-11-12T05:38:02.966Z,1022.62
2022-11-12T05:39:03.407Z,1022.62
2022-11-12T05:40:03.143Z,1022.61
2022-11-12T05:41:02.903Z,1022.61
2022-11-12T05:42:15.603Z,1022.57
2022-11-12T05:43:03.305Z,1022.65
2022-11-12T05:44:02.885Z,1022.64
2022-11-12T05:45:03.102Z,1022.62
2022-11-12T05:46:03.539Z,1022.64
2022-11-12T05:47:02.458Z,1022.59
2022-11-12T05:48:02.605Z,1022.62
2022-11-12T05:49:02.815Z,1022.60
2022-11-12T05:50:02.412Z,1022.59
2022-11-12T05:51:17.503Z,1022.56
2022-11-12T05:52:02.800Z,1022.58
2022-11-12T05:53:02.367Z,1022.59
2022-11-12T05:54:02.864Z,1022.61
2022-11-12T05:55:02.849Z,1022.62
2022-11-12T05:56:02.612Z,1022.61
2022-11-12T05:57:03.067Z,1022.64
2022-11-12T05:58:02.786Z,1022.61
2022-11-12T05:59:03.195Z,1022.64
2022-11-12T06:00:02.802Z,1022.63
2022-11-12T06:01:03.258Z,1022.62
2022-11-12T06:02:02.771Z,1022.61
2022-11-12T06:03:02.785Z,1022.60
2022-11-12T06:04:02.551Z,1022.58
2022-11-12T06:05:03.024Z,1022.59
2022-11-12T06:06:02.708Z,1022.60
2022-11-12T06:07:03.485Z,1022.57
2022-11-12T06:08:03.503Z,1022.59
2022-11-12T06:09:02.760Z,1022.59
2022-11-12T06:10:03.193Z,1022.56
2022-11-12T06:11:03.026Z,1022.58
2022-11-12T06:12:02.591Z,1022.59
2022-11-12T06:13:02.494Z,1022.61
2022-11-12T06:14:02.682Z,1022.64
2022-11-12T06:15:02.510Z,1022.65
2022-11-12T06:16:02.720Z,1022.65
2022-11-12T06:17:03.334Z,1022.65
2022-11-12T06:18:02.927Z,1022.69
2022-11-12T06:19:03.061Z,1022.71
2022-11-12T06:20:02.908Z,1022.73
2022-11-12T06:21:03.211Z,1022.79
2022-11-12T06:22:02.271Z,1022.79
2022-11-12T06:23:02.852Z,1022.78
2022-11-12T06:24:02.678Z,1022.80
2022-11-12T06:25:02.895Z,1022.81
2022-11-12T06:26:02.492Z,1022.82
2022-11-12T06:27:02.517Z,1022.82
2022-11-12T06:28:03.011Z,1022.85
2022-11-12T06:29:03.054Z,1022.88
2022-11-12T06:30:03.089Z,1022.88
2022-11-12T06:31:02.651Z,1022.89
2022-11-12T06:32:03.078Z,1022.86
2022-11-12T06:33:03.221Z,1022.85
2022-11-12T06:34:02.996Z,1022.87
2022-11-12T06:35:02.583Z,1022.88
2022-11-12T06:36:03.304Z,1022.86
2022-11-12T06:37:02.071Z,1022.85
2022-11-12T06:38:02.020Z,1022.86
2022-11-12T06:39:02.517Z,1022.80
2022-11-12T06:40:02.202Z,1022.82
2022-11-12T06:41:02.285Z,1022.77
2022-11-12T06:42:02.811Z,1022.72
2022-11-12T06:43:02.755Z,1022.73
2022-11-12T06:44:02.881Z,1022.76
2022-11-12T06:45:02.519Z,1022.71
2022-11-12T06:46:02.268Z,1022.72
2022-11-12T06:47:02.524Z,1022.74
2022-11-12T06:48:02.125Z,1022.69
2022-11-12T06:49:02.483Z,1022.68
2022-11-12T06:50:02.129Z,1022.72
2022-11-12T06:51:02.068Z,1022.80
2022-11-12T06:52:02.303Z,1022.79
2022-11-12T06:53:02.541Z,1022.80
2022-11-12T06:54:02.432Z,1022.84
2022-11-12T06:55:02.220Z,1022.79
2022-11-12T06:56:02.198Z,1022.81
2022-11-12T06:57:02.749Z,1022.82
2022-11-12T06:58:02.725Z,1022.84
2022-11-12T06:59:02.454Z,1022.82
2022-11-12T07:00:02.240Z,1022.85
2022-11-12T07:01:05.750Z,1022.86
2022-11-12T07:02:02.838Z,1022.90
2022-11-12T07:03:02.455Z,1022.90
2022-11-12T07:04:02.356Z,1022.92
2022-11-12T07:05:02.148Z,1022.95
2022-11-12T07:06:02.715Z,1022.95
2022-11-12T07:07:06.667Z,1022.96
2022-11-12T07:08:02.837Z,1023.01
2022-11-12T07:09:02.928Z,1023.01
2022-11-12T07:10:02.979Z,1023.02
2022-11-12T07:11:02.902Z,1023.02
2022-11-12T07:12:02.572Z,1023.03
2022-11-12T07:13:02.426Z,1023.01
2022-11-12T07:14:02.276Z,1023.03
2022-11-12T07:15:02.235Z,1023.10
2022-11-12T07:16:02.733Z,1023.09
2022-11-12T07:17:02.799Z,1023.11
2022-11-12T07:18:03.037Z,1023.18
2022-11-12T07:19:03.166Z,1023.18
2022-11-12T07:20:04.131Z,1023.21
2022-11-12T07:21:02.866Z,1023.21
2022-11-12T07:22:02.787Z,1023.30
2022-11-12T07:23:03.384Z,1023.26
2022-11-12T07:24:03.005Z,1023.27
2022-11-12T07:25:03.337Z,1023.28
2022-11-12T07:26:03.151Z,1023.21
2022-11-12T07:27:02.171Z,1023.23
2022-11-12T07:28:02.542Z,1023.26
2022-11-12T07:29:02.409Z,1023.23
2022-11-12T07:30:02.193Z,1023.21
2022-11-12T07:31:02.252Z,1023.18
2022-11-12T07:32:02.398Z,1023.20
2022-11-12T07:33:02.422Z,1023.21
2022-11-12T07:34:02.425Z,1023.22
2022-11-12T07:35:02.359Z,1023.21
2022-11-12T07:36:02.306Z,1023.23
2022-11-12T07:37:02.378Z,1023.19
2022-11-12T07:38:02.860Z,1023.16
2022-11-12T07:39:02.726Z,1023.15
2022-11-12T07:40:02.567Z,1023.11
2022-11-12T07:41:02.498Z,1023.16
2022-11-12T07:42:02.751Z,1023.14
2022-11-12T07:43:02.690Z,1023.13
2022-11-12T07:44:02.745Z,1023.14
2022-11-12T07:45:02.895Z,1023.16
2022-11-12T07:46:09.053Z,1023.16
2022-11-12T07:47:02.747Z,1023.17
2022-11-12T07:48:02.765Z,1023.19
2022-11-12T07:49:02.733Z,1023.18
2022-11-12T07:50:02.671Z,1023.21
2022-11-12T07:51:02.549Z,1023.19
2022-11-12T07:52:02.223Z,1023.22
2022-11-12T07:53:02.721Z,1023.24
2022-11-12T07:54:02.389Z,1023.24
2022-11-12T07:55:02.291Z,1023.21
2022-11-12T07:56:02.220Z,1023.23
2022-11-12T07:57:02.861Z,1023.21
2022-11-12T07:58:02.566Z,1023.23
2022-11-12T07:59:02.451Z,1023.23
2022-11-12T08:00:02.521Z,1023.23
2022-11-12T08:01:02.275Z,1023.23
2022-11-12T08:02:02.934Z,1023.22
2022-11-12T08:03:03.291Z,1023.24
2022-11-12T08:04:03.178Z,1023.24
2022-11-12T08:05:06.144Z,1023.26
2022-11-12T08:06:03.206Z,1023.23
2022-11-12T08:07:03.172Z,1023.28
2022-11-12T08:08:03.653Z,1023.31
2022-11-12T08:09:03.085Z,1023.26
2022-11-12T08:10:03.338Z,1023.25
2022-11-12T08:11:03.234Z,1023.27
2022-11-12T08:12:02.961Z,1023.26
2022-11-12T08:13:02.586Z,1023.27
2022-11-12T08:14:02.544Z,1023.27
2022-11-12T08:15:02.794Z,1023.28
2022-11-12T08:16:02.560Z,1023.32
2022-11-12T08:17:03.194Z,1023.32
2022-11-12T08:18:03.079Z,1023.34
2022-11-12T08:19:03.393Z,1023.36
2022-11-12T08:20:03.127Z,1023.31
2022-11-12T08:21:03.636Z,1023.33
2022-11-12T08:22:02.558Z,1023.34
2022-11-12T08:23:02.877Z,1023.36
2022-11-12T08:24:02.577Z,1023.36
2022-11-12T08:25:02.451Z,1023.37
2022-11-12T08:26:02.675Z,1023.35
2022-11-12T08:27:02.806Z,1023.39
2022-11-12T08:28:02.675Z,1023.35
2022-11-12T08:29:06.997Z,1023.41
2022-11-12T08:30:02.540Z,1023.39
2022-11-12T08:31:03.034Z,1023.45
2022-11-12T08:32:03.100Z,1023.42
2022-11-12T08:33:03.071Z,1023.40
2022-11-12T08:34:02.850Z,1023.39
2022-11-12T08:35:02.729Z,1023.41
2022-11-12T08:36:02.711Z,1023.37
2022-11-12T08:37:03.004Z,1023.38
2022-11-12T08:38:03.329Z,1023.37
2022-11-12T08:39:03.220Z,1023.38
2022-11-12T08:40:03.076Z,1023.37
2022-11-12T08:41:02.983Z,1023.43
2022-11-12T08:42:03.166Z,1023.46
2022-11-12T08:43:02.987Z,1023.42
2022-11-12T08:44:08.275Z,1023.45
2022-11-12T08:45:03.364Z,1023.50
2022-11-12T08:46:03.339Z,1023.46
2022-11-12T08:47:02.932Z,1023.49
2022-11-12T08:48:03.289Z,1023.53
2022-11-12T08:49:03.355Z,1023.55
2022-11-12T08:50:03.208Z,1023.56
2022-11-12T08:51:03.158Z,1023.60
2022-11-12T08:52:02.721Z,1023.61
2022-11-12T08:53:02.573Z,1023.63
2022-11-12T08:54:02.780Z,1023.60
2022-11-12T08:55:02.731Z,1023.58
2022-11-12T08:56:02.518Z,1023.55
2022-11-12T08:57:02.817Z,1023.55
2022-11-12T08:58:02.554Z,1023.51
2022-11-12T08:59:07.054Z,1023.49
2022-11-12T09:00:02.444Z,1023.52
2022-11-12T09:01:02.492Z,1023.54
2022-11-12T09:02:03.073Z,1023.50
2022-11-12T09:03:02.945Z,1023.48
2022-11-12T09:04:02.939Z,1023.47
2022-11-12T09:05:02.812Z,1023.48
2022-11-12T09:06:02.722Z,1023.47
2022-11-12T09:07:02.924Z,1023.48
2022-11-12T09:08:03.216Z,1023.44
2022-11-12T09:09:03.061Z,1023.43
2022-11-12T09:10:03.252Z,1023.42
2022-11-12T09:11:02.938Z,1023.38
2022-11-12T09:12:10.459Z,1023.36
2022-11-12T09:13:02.685Z,1023.35
2022-11-12T09:14:02.610Z,1023.35
2022-11-12T09:15:35.627Z,1023.34
2022-11-12T09:16:02.830Z,1023.35
2022-11-12T09:17:03.056Z,1023.31
2022-11-12T09:18:02.956Z,1023.30
2022-11-12T09:19:02.977Z,1023.31
2022-11-12T09:20:02.795Z,1023.28
2022-11-12T09:21:02.690Z,1023.33
2022-11-12T09:22:03.135Z,1023.31
2022-11-12T09:23:03.390Z,1023.32
2022-11-12T09:24:03.320Z,1023.33
2022-11-12T09:25:03.733Z,1023.28
2022-11-12T09:26:03.495Z,1023.31
2022-11-12T09:27:02.671Z,1023.28
2022-11-12T09:28:02.766Z,1023.28
2022-11-12T09:29:02.589Z,1023.30
2022-11-12T09:30:02.745Z,1023.31
2022-11-12T09:31:02.810Z,1023.25
2022-11-12T09:32:03.407Z,1023.25
2022-11-12T09:33:03.218Z,1023.28
2022-11-12T09:34:03.534Z,1023.27
2022-11-12T09:35:03.225Z,1023.25
2022-11-12T09:36:03.419Z,1023.28
2022-11-12T09:37:02.796Z,1023.29
2022-11-12T09:38:02.835Z,1023.31
2022-11-12T09:39:02.628Z,1023.31
2022-11-12T09:40:02.602Z,1023.21
2022-11-12T09:41:02.766Z,1023.25
2022-11-12T09:42:03.349Z,1023.28
2022-11-12T09:43:03.172Z,1023.28
2022-11-12T09:44:03.140Z,1023.27
2022-11-12T09:45:03.340Z,1023.25
2022-11-12T09:46:28.693Z,1023.28
2022-11-12T09:47:03.496Z,1023.28
2022-11-12T09:48:03.046Z,1023.28
2022-11-12T09:49:03.379Z,1023.33
2022-11-12T09:50:03.206Z,1023.33
2022-11-12T09:51:03.006Z,1023.32
2022-11-12T09:52:03.280Z,1023.33
2022-11-12T09:53:02.909Z,1023.31
2022-11-12T09:54:02.700Z,1023.30
2022-11-12T09:55:02.643Z,1023.30
2022-11-12T09:56:02.860Z,1023.33
2022-11-12T09:57:02.590Z,1023.32
2022-11-12T09:58:02.791Z,1023.32
2022-11-12T09:59:02.829Z,1023.31
2022-11-12T10:00:02.932Z,1023.32
2022-11-12T10:01:02.396Z,1023.31
2022-11-12T10:02:02.495Z,1023.29
2022-11-12T10:03:01.991Z,1023.32
2022-11-12T10:04:02.039Z,1023.27
2022-11-12T10:05:01.972Z,1023.25
2022-11-12T10:06:05.935Z,1023.21
2022-11-12T10:07:02.050Z,1023.20
2022-11-12T10:08:02.215Z,1023.24
2022-11-12T10:09:02.650Z,1023.22
2022-11-12T10:10:02.438Z,1023.29
2022-11-12T10:11:02.439Z,1023.24
2022-11-12T10:12:04.555Z,1023.28
2022-11-12T10:13:03.002Z,1023.30
2022-11-12T10:14:03.040Z,1023.30
2022-11-12T10:15:02.876Z,1023.33
2022-11-12T10:16:02.467Z,1023.28
2022-11-12T10:17:02.993Z,1023.31
2022-11-12T10:18:02.735Z,1023.35
2022-11-12T10:19:02.893Z,1023.28
2022-11-12T10:20:02.932Z,1023.32
2022-11-12T10:21:02.608Z,1023.26
2022-11-12T10:22:01.985Z,1023.27
2022-11-12T10:23:01.878Z,1023.26
2022-11-12T10:24:02.088Z,1023.21
2022-11-12T10:25:02.078Z,1023.22
2022-11-12T10:26:02.140Z,1023.21
2022-11-12T10:27:02.324Z,1023.19
2022-11-12T10:28:02.592Z,1023.20
2022-11-12T10:29:02.381Z,1023.15
2022-11-12T10:30:02.409Z,1023.16
2022-11-12T10:31:02.408Z,1023.13
2022-11-12T10:32:02.903Z,1023.15
2022-11-12T10:33:02.679Z,1023.13
2022-11-12T10:34:02.574Z,1023.09
2022-11-12T10:35:02.740Z,1023.11
2022-11-12T10:36:02.756Z,1023.09
2022-11-12T10:37:02.633Z,1023.06
2022-11-12T10:38:02.856Z,1023.06
2022-11-12T10:39:02.922Z,1023.08
2022-11-12T10:40:03.228Z,1023.05
2022-11-12T10:41:06.798Z,1023.04
2022-11-12T10:42:02.039Z,1023.02
2022-11-12T10:43:02.300Z,1023.00
2022-11-12T10:44:02.227Z,1022.98
2022-11-12T10:45:02.375Z,1023.00
2022-11-12T10:46:02.794Z,1022.96
2022-11-12T10:47:02.426Z,1022.91
2022-11-12T10:48:02.801Z,1022.90
2022-11-12T10:49:02.867Z,1022.88
2022-11-12T10:50:02.583Z,1022.84
2022-11-12T10:51:03.011Z,1022.85
2022-11-12T10:52:02.112Z,1022.82
2022-11-12T10:53:02.756Z,1022.79
2022-11-12T10:54:02.509Z,1022.81
2022-11-12T10:55:02.517Z,1022.77
2022-11-12T10:56:02.643Z,1022.79
2022-11-12T10:57:02.496Z,1022.81
2022-11-12T10:58:02.388Z,1022.76
2022-11-12T10:59:02.366Z,1022.76
2022-11-12T11:00:02.457Z,1022.73
2022-11-12T11:01:02.853Z,1022.73
2022-11-12T11:02:02.561Z,1022.73
2022-11-12T11:03:02.575Z,1022.71
2022-11-12T11:04:02.670Z,1022.70
2022-11-12T11:05:02.819Z,1022.75
2022-11-12T11:06:02.671Z,1022.72
2022-11-12T11:07:02.664Z,1022.75
2022-11-12T11:08:02.944Z,1022.74
2022-11-12T11:09:02.968Z,1022.73
2022-11-12T11:10:02.998Z,1022.72
2022-11-12T11:11:02.920Z,1022.70
2022-11-12T11:12:03.043Z,1022.71
2022-11-12T11:13:02.949Z,1022.70
2022-11-12T11:14:02.972Z,1022.74
2022-11-12T11:15:03.183Z,1022.70
2022-11-12T11:16:03.196Z,1022.73
2022-11-12T11:17:03.287Z,1022.71
2022-11-12T11:18:03.307Z,1022.66
2022-11-12T11:19:03.017Z,1022.69
2022-11-12T11:20:03.542Z,1022.68
2022-11-12T11:21:03.338Z,1022.69
2022-11-12T11:22:03.228Z,1022.66
2022-11-12T11:23:03.285Z,1022.67
2022-11-12T11:24:03.248Z,1022.65
2022-11-12T11:25:03.162Z,1022.61
2022-11-12T11:26:03.742Z,1022.58
2022-11-12T11:27:02.513Z,1022.62
2022-11-12T11:28:02.539Z,1022.60
2022-11-12T11:29:02.766Z,1022.55
2022-11-12T11:30:02.783Z,1022.54
2022-11-12T11:31:02.422Z,1022.55
2022-11-12T11:32:02.959Z,1022.52
2022-11-12T11:33:03.397Z,1022.50
2022-11-12T11:34:03.121Z,1022.50
2022-11-12T11:35:02.944Z,1022.50
2022-11-12T11:36:03.219Z,1022.50
2022-11-12T11:37:03.159Z,1022.49
2022-11-12T11:38:03.277Z,1022.46
2022-11-12T11:39:03.359Z,1022.45
2022-11-12T11:40:03.518Z,1022.43
2022-11-12T11:41:03.543Z,1022.42
2022-11-12T11:42:03.207Z,1022.45
2022-11-12T11:43:03.212Z,1022.45
2022-11-12T11:44:03.705Z,1022.42
2022-11-12T11:45:03.562Z,1022.42
2022-11-12T11:46:03.407Z,1022.41
2022-11-12T11:47:02.826Z,1022.35
2022-11-12T11:48:02.911Z,1022.41
2022-11-12T11:49:02.626Z,1022.38
2022-11-12T11:50:02.580Z,1022.39
2022-11-12T11:51:02.775Z,1022.39
2022-11-12T11:52:03.686Z,1022.42
2022-11-12T11:53:03.641Z,1022.44
2022-11-12T11:54:03.586Z,1022.45
2022-11-12T11:55:03.773Z,1022.42
2022-11-12T11:56:03.713Z,1022.47
2022-11-12T11:57:03.076Z,1022.47
2022-11-12T11:58:02.829Z,1022.43
2022-11-12T11:59:02.854Z,1022.43
2022-11-12T12:00:02.969Z,1022.44
2022-11-12T12:01:03.015Z,1022.46
2022-11-12T12:02:02.454Z,1022.49
2022-11-12T12:03:02.640Z,1022.45
2022-11-12T12:04:02.499Z,1022.49
2022-11-12T12:05:02.527Z,1022.44